Etusivu
METAR-TAF:

METAR-TAF

Lentoasemat :

Logroño, Espanja

Leveyspiiri: 42-27N, Pituuspiiri: 002-20W, korkeus merenpinnasta: 353 m

Tämänhetkinen sää

Tämä raportti tehtiin 22 minuuttia sitten, kello 04.00 UTC
Tuuli 4 kn lounaasta, vaihdellen etelän ja lännen välillä
Lämpötila 7°C
Kosteus 81%
Ilmanpaine 1026 hPa
Näkyvyys 10 km tai enemmän

METAR: LELO 190400Z AUTO 23004KT 190V260 9999 BKN029/// OVC035/// 07/04 Q1026

Aika: 05:22 (04:22 UTC)

Sääennuste

Tämä raportti tehtiin 2 tuntia ja 22 minuuttia sitten, kello 02.00 UTC
Ennuste voimassa 19. päivästä klo 03 UTC - 19. päivään klo 12 UTC
Tuuli 8 kn lännestä
Näkyvyys 10 km tai enemmän
Hajanaisia pilviä 2000 ft:n korkeudessa
Todennäköisyys 30% :
Ajoittain
19. päivästä klo 05 UTC - 19. päivään klo 12 UTC
Hajonneita pilviä 1400 ft:n korkeudessa
sadetta

TAF: LELO 190200Z 1903/1912 28008KT 9999 SCT020 PROB30 TEMPO 1905/1912 RA BKN014

Säähavainnot ja -ennusteet yli 4000 lentoasemalta (METAR- ja TAF-raportit).

Käytössä olevat sääasemat on merkitty karttaan keltaisilla ja punaisilla pisteillä.

Aseta hiiri pisteen päälle nähdäksesi sääaseman nimen.

Klikkaa sitten nähdäksesi säähavainnot ja -ennusteet.

Kartan vaihtaminen: klikkaa mustalla rastilla varustettuja vihreitä pisteitä, niin voit zoomata sisään; viivalla varustettua vihreää pistettä, niin voit zoomata ulos tai vihreitä nuolia, niin pääset viereisille kartoille.


METAR-TAF: